Time;durP1;ratioP1;P1;durP2;ratioP2;P2;SDS_P1;SDS_P2;PMS_P1;PMS_P2;Temp;Humidity;BMP_temperature;BMP_pressure;BME280_temperature;BME280_humidity;BME280_pressure;Samples;Min_cycle;Max_cycle;Signal;HPM_P1;HPM_P2
2024/04/05 00:01:26;;;;;;;23.33;6.97;;;11.60;99.90;;;;;;5128741;27;20405;-92
2024/04/05 00:03:52;;;;;;;16.30;2.30;;;11.60;99.90;;;;;;5109743;27;20494;-91
2024/04/05 00:06:18;;;;;;;11.60;2.38;;;11.50;99.90;;;;;;5092844;27;20120;-92
2024/04/05 00:08:44;;;;;;;10.65;3.20;;;11.50;99.90;;;;;;5130638;27;20114;-91
2024/04/05 00:11:10;;;;;;;13.77;2.92;;;11.40;99.90;;;;;;5131667;27;20533;-92
2024/04/05 00:13:36;;;;;;;28.23;7.13;;;11.40;99.90;;;;;;5130416;27;20038;-91
2024/04/05 00:16:06;;;;;;;24.15;4.22;;;11.50;99.90;;;;;;5129582;27;20027;-91
2024/04/05 00:18:34;;;;;;;14.55;3.10;;;11.50;99.90;;;;;;5094242;27;20039;-92
2024/04/05 00:21:06;;;;;;;24.23;7.05;;;11.40;99.90;;;;;;5131338;27;20760;-91
2024/04/05 00:23:34;;;;;;;15.57;3.40;;;11.50;99.90;;;;;;5114366;27;20594;-92
2024/04/05 00:26:06;;;;;;;8.35;1.38;;;11.50;99.90;;;;;;5112837;27;20039;-92
2024/04/05 00:28:33;;;;;;;22.95;6.38;;;11.40;99.90;;;;;;5096050;27;20054;-92
2024/04/05 00:30:59;;;;;;;20.08;3.13;;;11.40;99.90;;;;;;5092260;27;20050;-92
2024/04/05 00:33:25;;;;;;;22.52;4.35;;;11.40;99.90;;;;;;5093578;27;20039;-93
2024/04/05 00:35:55;;;;;;;17.50;3.13;;;11.30;99.90;;;;;;5111059;27;20023;-93
2024/04/05 00:38:23;;;;;;;15.35;3.22;;;11.30;99.90;;;;;;5093659;27;20031;-94
2024/04/05 00:40:49;;;;;;;21.02;3.50;;;11.20;99.90;;;;;;5111684;27;20091;-93
2024/04/05 00:43:15;;;;;;;26.70;6.35;;;11.20;99.90;;;;;;5129199;27;20038;-93
2024/04/05 00:45:45;;;;;;;28.05;6.63;;;11.20;99.90;;;;;;5109569;28;20583;-94
2024/04/05 00:48:11;;;;;;;16.48;1.92;;;11.30;99.90;;;;;;5108682;27;20039;-93
2024/04/05 00:50:37;;;;;;;26.60;6.55;;;11.20;99.90;;;;;;5094117;27;20598;-94
2024/04/05 00:53:05;;;;;;;10.93;1.92;;;11.30;99.90;;;;;;5094123;27;20106;-93
2024/04/05 00:55:31;;;;;;;12.02;2.47;;;11.20;99.90;;;;;;5112076;27;20039;-93
2024/04/05 00:58:01;;;;;;;14.20;2.88;;;11.20;99.90;;;;;;5111049;27;20027;-93
2024/04/05 01:00:31;;;;;;;28.52;6.18;;;11.20;99.90;;;;;;5091318;27;20498;-95
2024/04/05 01:02:57;;;;;;;10.43;2.63;;;11.30;99.90;;;;;;5110536;27;20039;-93
2024/04/05 01:05:23;;;;;;;7.07;1.75;;;11.30;99.90;;;;;;5110141;27;20490;-93
2024/04/05 01:07:50;;;;;;;9.40;1.50;;;11.20;99.90;;;;;;5094128;27;20039;-93
2024/04/05 01:10:16;;;;;;;23.33;3.75;;;11.20;99.90;;;;;;5095288;27;20095;-93
2024/04/05 01:12:42;;;;;;;4.20;1.02;;;11.20;99.90;;;;;;5110187;27;20494;-93
2024/04/05 01:15:08;;;;;;;17.20;2.95;;;11.20;99.90;;;;;;5109515;27;20050;-94
2024/04/05 01:17:35;;;;;;;17.70;3.28;;;11.20;99.90;;;;;;5126197;27;20071;-93
2024/04/05 01:20:03;;;;;;;23.80;7.03;;;11.20;99.90;;;;;;5111056;27;20027;-94
2024/04/05 01:22:34;;;;;;;15.98;2.78;;;11.20;99.90;;;;;;5093318;27;20512;-93
2024/04/05 01:25:00;;;;;;;12.10;3.83;;;11.20;99.90;;;;;;5111876;27;20096;-92
2024/04/05 01:27:26;;;;;;;11.70;2.53;;;11.20;99.90;;;;;;5109109;27;20066;-94
2024/04/05 01:29:52;;;;;;;15.25;2.75;;;11.20;99.90;;;;;;5108625;27;20490;-93
2024/04/05 01:32:17;;;;;;;16.65;3.05;;;11.20;99.90;;;;;;5092024;27;20043;-94
2024/04/05 01:34:43;;;;;;;31.67;7.95;;;11.20;99.90;;;;;;5094455;27;20066;-94
2024/04/05 01:37:10;;;;;;;23.77;2.45;;;11.20;99.90;;;;;;5110964;27;20035;-94
2024/04/05 01:39:35;;;;;;;15.88;2.60;;;11.20;99.90;;;;;;5110806;27;20043;-94
2024/04/05 01:42:01;;;;;;;18.13;2.80;;;11.20;99.90;;;;;;5128318;27;20023;-93
2024/04/05 01:44:26;;;;;;;11.55;2.33;;;11.20;99.90;;;;;;5091235;27;20558;-93
2024/04/05 01:46:52;;;;;;;20.75;2.95;;;11.10;99.90;;;;;;5109168;27;20512;-93
2024/04/05 01:49:18;;;;;;;18.80;3.20;;;11.10;99.90;;;;;;5092245;27;20066;-93
2024/04/05 01:51:43;;;;;;;10.48;1.98;;;11.10;99.90;;;;;;5110448;27;20538;-92
2024/04/05 01:54:09;;;;;;;14.45;2.65;;;11.10;99.90;;;;;;5129253;27;20074;-93
2024/04/05 01:56:35;;;;;;;20.00;3.13;;;11.10;99.90;;;;;;5092011;27;20046;-93
2024/04/05 01:59:00;;;;;;;21.55;3.13;;;11.10;99.90;;;;;;5090213;27;20154;-93
2024/04/05 02:01:26;;;;;;;14.07;2.55;;;11.10;99.90;;;;;;5094429;27;20038;-93
2024/04/05 02:03:52;;;;;;;28.98;3.30;;;11.20;99.90;;;;;;5109234;27;20658;-93
2024/04/05 02:06:17;;;;;;;20.58;3.58;;;11.10;99.90;;;;;;5110063;27;20110;-93
2024/04/05 02:08:43;;;;;;;21.35;3.00;;;11.20;99.90;;;;;;5110585;27;20039;-92
2024/04/05 02:11:09;;;;;;;14.55;2.72;;;11.20;99.90;;;;;;5094170;27;20413;-93
2024/04/05 02:13:37;;;;;;;11.00;2.53;;;11.20;99.90;;;;;;5127790;27;20460;-94
2024/04/05 02:16:03;;;;;;;31.02;8.27;;;11.30;99.90;;;;;;5110519;27;20031;-93
2024/04/05 02:18:28;;;;;;;17.15;2.60;;;11.40;99.90;;;;;;5094249;27;20091;-94
2024/04/05 02:20:56;;;;;;;21.73;3.47;;;11.40;99.90;;;;;;5111248;27;20058;-92
2024/04/05 02:23:22;;;;;;;12.00;1.83;;;11.40;99.90;;;;;;5109753;27;20035;-93
2024/04/05 02:25:47;;;;;;;21.23;4.03;;;11.40;99.90;;;;;;5109238;27;20405;-93
2024/04/05 02:28:13;;;;;;;14.60;2.35;;;11.30;99.90;;;;;;5108615;27;20046;-94
2024/04/05 02:30:39;;;;;;;13.32;3.20;;;11.40;99.90;;;;;;5091130;27;20083;-93
2024/04/05 02:33:05;;;;;;;13.02;2.83;;;11.30;99.90;;;;;;5109108;27;20062;-93
2024/04/05 02:35:31;;;;;;;19.08;2.80;;;11.30;99.90;;;;;;5127734;27;20176;-93
2024/04/05 02:37:57;;;;;;;17.67;3.45;;;11.30;99.90;;;;;;5128507;27;20518;-94
2024/04/05 02:40:23;;;;;;;22.30;3.72;;;11.30;99.90;;;;;;5125785;27;20093;-93
2024/04/05 02:42:49;;;;;;;14.40;3.35;;;11.30;99.90;;;;;;5090435;27;20152;-94
2024/04/05 02:45:14;;;;;;;28.65;7.53;;;11.30;99.90;;;;;;5107758;27;20031;-94
2024/04/05 02:47:40;;;;;;;19.58;4.15;;;11.30;99.90;;;;;;5091335;27;20027;-94
2024/04/05 02:50:06;;;;;;;24.17;4.22;;;11.30;99.90;;;;;;5092969;27;20047;-93
2024/04/05 02:52:33;;;;;;;14.55;3.28;;;11.30;99.90;;;;;;5127803;27;20035;-93
2024/04/05 02:54:59;;;;;;;15.25;3.17;;;11.30;99.90;;;;;;5109748;27;20043;-93
2024/04/05 02:57:25;;;;;;;28.50;7.32;;;11.30;99.90;;;;;;5105858;28;20050;-94
2024/04/05 02:59:50;;;;;;;28.20;7.28;;;11.40;99.90;;;;;;5109727;28;20064;-94
2024/04/05 03:02:16;;;;;;;19.23;4.13;;;11.40;99.90;;;;;;5093093;28;20031;-93
2024/04/05 03:04:42;;;;;;;16.58;2.10;;;11.40;99.90;;;;;;5092705;28;20035;-93
2024/04/05 03:07:07;;;;;;;17.17;2.45;;;11.40;99.90;;;;;;5127509;28;20046;-92
2024/04/05 03:09:36;;;;;;;23.95;3.55;;;11.40;99.90;;;;;;5106503;28;20039;-94
2024/04/05 03:12:03;;;;;;;22.63;3.15;;;11.40;99.90;;;;;;5106772;28;20047;-94
2024/04/05 03:14:28;;;;;;;13.55;2.40;;;11.40;99.90;;;;;;5108321;28;20053;-94
2024/04/05 03:16:54;;;;;;;6.00;1.48;;;11.40;99.90;;;;;;5107524;28;20409;-94
2024/04/05 03:19:20;;;;;;;15.25;3.35;;;11.50;99.90;;;;;;5091799;28;20389;-94
2024/04/05 03:21:46;;;;;;;21.90;6.28;;;11.50;99.90;;;;;;5110492;28;20486;-94
2024/04/05 03:24:12;;;;;;;13.00;3.15;;;11.50;99.90;;;;;;5111027;28;20032;-93
2024/04/05 03:26:38;;;;;;;16.10;2.72;;;11.60;99.90;;;;;;5098139;27;20035;-94
2024/04/05 03:29:04;;;;;;;14.95;2.35;;;11.50;99.90;;;;;;5110353;28;20095;-93
2024/04/05 03:31:29;;;;;;;12.85;2.47;;;11.50;99.90;;;;;;5109009;28;20035;-94
2024/04/05 03:33:55;;;;;;;14.68;2.60;;;11.50;99.90;;;;;;5092593;28;20114;-93
2024/04/05 03:36:21;;;;;;;9.38;2.58;;;11.50;99.90;;;;;;5108301;28;20035;-94
2024/04/05 03:38:50;;;;;;;7.28;1.80;;;11.60;99.90;;;;;;5107891;28;20122;-93
2024/04/05 03:41:16;;;;;;;14.95;2.65;;;11.60;99.90;;;;;;5091183;28;20092;-93
2024/04/05 03:43:41;;;;;;;13.13;2.33;;;11.50;99.90;;;;;;5107911;28;20510;-93
2024/04/05 03:46:07;;;;;;;17.35;2.72;;;11.50;99.90;;;;;;5091984;28;20039;-94
2024/04/05 03:48:33;;;;;;;13.63;3.10;;;11.60;99.90;;;;;;5091544;28;20054;-94
2024/04/05 03:50:58;;;;;;;15.55;2.80;;;11.60;99.90;;;;;;5092256;28;20031;-93
2024/04/05 03:53:24;;;;;;;10.98;1.95;;;11.60;99.90;;;;;;5090793;28;20092;-92
2024/04/05 03:55:56;;;;;;;13.52;2.67;;;11.60;99.90;;;;;;5106661;28;20039;-93
2024/04/05 03:58:22;;;;;;;15.13;2.47;;;11.60;99.90;;;;;;5106383;28;20067;-94
2024/04/05 04:00:51;;;;;;;15.90;2.92;;;11.60;99.90;;;;;;5092051;28;20027;-93
2024/04/05 04:03:17;;;;;;;16.50;3.13;;;11.60;99.90;;;;;;5092628;28;20038;-94
2024/04/05 04:05:44;;;;;;;9.15;2.00;;;11.60;99.90;;;;;;5109433;28;20031;-94
2024/04/05 04:08:10;;;;;;;11.32;2.25;;;11.60;99.90;;;;;;5107468;28;20506;-93
2024/04/05 04:10:36;;;;;;;25.10;6.75;;;11.60;99.90;;;;;;5107811;28;20031;-93
2024/04/05 04:13:02;;;;;;;12.13;2.30;;;11.70;99.90;;;;;;5109220;28;20035;-94
2024/04/05 04:15:27;;;;;;;8.35;1.73;;;11.70;99.90;;;;;;5090716;28;20043;-93
2024/04/05 04:17:53;;;;;;;11.25;2.15;;;11.70;99.90;;;;;;5108413;28;20038;-94
2024/04/05 04:20:19;;;;;;;13.50;2.35;;;11.70;99.90;;;;;;5109022;27;20487;-94
2024/04/05 04:22:45;;;;;;;8.45;1.90;;;11.70;99.90;;;;;;5133043;27;20067;-94
2024/04/05 04:25:11;;;;;;;24.88;6.57;;;11.70;99.90;;;;;;5096634;27;20579;-93
2024/04/05 04:27:37;;;;;;;14.05;2.63;;;11.80;99.90;;;;;;5115975;27;20031;-95
2024/04/05 04:30:04;;;;;;;13.25;2.75;;;11.80;99.90;;;;;;5113727;27;20095;-94
2024/04/05 04:32:33;;;;;;;19.25;3.17;;;11.80;99.90;;;;;;5095726;27;20108;-94
2024/04/05 04:34:59;;;;;;;16.98;2.92;;;11.80;99.90;;;;;;5095138;27;20043;-94
2024/04/05 04:37:25;;;;;;;17.20;3.05;;;11.80;99.90;;;;;;5127322;27;20035;-94
2024/04/05 04:39:51;;;;;;;18.55;3.40;;;11.80;99.90;;;;;;5127553;27;20030;-95
2024/04/05 04:42:17;;;;;;;14.23;3.38;;;11.80;99.90;;;;;;5112390;27;20061;-93
2024/04/05 04:44:43;;;;;;;16.05;2.63;;;11.80;99.90;;;;;;5111682;27;20105;-94
2024/04/05 04:47:09;;;;;;;13.43;3.15;;;11.80;99.90;;;;;;5130362;27;20545;-95
2024/04/05 04:49:35;;;;;;;11.88;2.35;;;11.80;99.90;;;;;;5112427;27;20043;-93
2024/04/05 04:52:01;;;;;;;12.10;2.63;;;11.80;99.90;;;;;;5095567;27;20042;-94
2024/04/05 04:54:28;;;;;;;30.58;7.22;;;11.80;99.90;;;;;;5091553;27;20039;-94
2024/04/05 04:56:54;;;;;;;10.23;1.98;;;11.90;99.90;;;;;;5111627;27;20042;-93
2024/04/05 04:59:20;;;;;;;8.50;1.70;;;11.90;99.90;;;;;;5110472;27;20452;-94
2024/04/05 05:01:45;;;;;;;10.90;2.38;;;11.90;99.90;;;;;;5112889;27;20101;-94
2024/04/05 05:04:14;;;;;;;11.75;2.35;;;11.80;99.90;;;;;;5111875;27;20493;-94
2024/04/05 05:06:39;;;;;;;8.73;2.60;;;11.80;99.90;;;;;;5127655;27;20040;-94
2024/04/05 05:09:05;;;;;;;17.05;2.88;;;11.80;99.90;;;;;;5109890;27;20503;-93
2024/04/05 05:11:31;;;;;;;12.65;2.47;;;11.80;99.90;;;;;;5093547;27;20039;-93
2024/04/05 05:13:57;;;;;;;12.30;2.35;;;11.80;99.90;;;;;;5110971;27;20035;-94
2024/04/05 05:16:24;;;;;;;27.45;7.50;;;11.80;99.90;;;;;;5110977;27;20042;-93
2024/04/05 05:18:50;;;;;;;27.23;7.10;;;11.80;99.90;;;;;;5111625;27;20066;-93
2024/04/05 05:21:16;;;;;;;18.20;2.90;;;11.90;99.90;;;;;;5111212;27;20027;-93
2024/04/05 05:23:41;;;;;;;19.27;3.25;;;11.90;99.90;;;;;;5132715;27;20406;-95
2024/04/05 05:26:07;;;;;;;21.63;6.18;;;11.90;99.90;;;;;;5112143;27;20035;-93
2024/04/05 05:28:33;;;;;;;29.67;7.72;;;11.90;99.90;;;;;;5096432;27;20054;-93
2024/04/05 05:30:59;;;;;;;18.98;4.18;;;12.00;99.90;;;;;;5111640;27;20064;-94
2024/04/05 05:33:24;;;;;;;17.27;2.70;;;12.00;99.90;;;;;;5109925;27;20550;-94
2024/04/05 05:35:50;;;;;;;18.80;2.88;;;11.90;99.90;;;;;;5109586;27;20459;-94
2024/04/05 05:38:18;;;;;;;13.70;3.70;;;11.90;99.90;;;;;;5107655;27;20067;-94
2024/04/05 05:40:44;;;;;;;22.98;6.40;;;11.90;99.90;;;;;;5130074;27;20461;-94
2024/04/05 05:43:09;;;;;;;27.35;6.75;;;11.90;99.90;;;;;;5093784;27;20488;-94
2024/04/05 05:45:35;;;;;;;12.32;2.60;;;12.00;99.90;;;;;;5111712;27;20031;-94
2024/04/05 05:48:01;;;;;;;17.65;3.67;;;11.90;99.90;;;;;;5129678;27;20559;-93
2024/04/05 05:50:26;;;;;;;17.42;3.22;;;11.90;99.90;;;;;;5109150;27;20039;-94
2024/04/05 05:52:52;;;;;;;13.60;2.75;;;11.90;99.90;;;;;;5109027;27;20483;-94
2024/04/05 05:55:22;;;;;;;12.05;2.58;;;11.90;99.90;;;;;;5128795;27;20042;-94
2024/04/05 05:57:48;;;;;;;15.25;3.38;;;11.80;99.90;;;;;;5092140;27;20035;-94
2024/04/05 06:00:14;;;;;;;12.80;3.40;;;11.90;99.90;;;;;;5110145;27;20031;-94
2024/04/05 06:02:40;;;;;;;17.45;3.63;;;11.90;99.90;;;;;;5129337;27;20033;-93
2024/04/05 06:05:08;;;;;;;22.73;6.60;;;11.90;99.90;;;;;;5093249;27;20046;-94
2024/04/05 06:07:34;;;;;;;14.02;2.58;;;11.90;99.90;;;;;;5107183;27;20529;-94
2024/04/05 06:10:00;;;;;;;12.02;2.65;;;12.00;99.90;;;;;;5093599;27;20027;-93
2024/04/05 06:12:26;;;;;;;14.23;2.75;;;11.90;99.90;;;;;;5110989;27;20118;-94
2024/04/05 06:14:58;;;;;;;17.77;2.78;;;12.00;99.90;;;;;;5091665;27;20035;-94
2024/04/05 06:17:27;;;;;;;24.25;7.13;;;11.90;99.90;;;;;;5091142;27;20027;-94
2024/04/05 06:19:57;;;;;;;17.38;2.22;;;12.00;99.90;;;;;;5092482;27;20059;-93
2024/04/05 06:22:25;;;;;;;14.27;3.72;;;12.00;99.90;;;;;;5091911;27;20130;-93
2024/04/05 06:24:52;;;;;;;18.88;3.20;;;12.00;99.90;;;;;;5131404;27;20066;-93
2024/04/05 06:27:21;;;;;;;24.92;6.53;;;12.00;99.90;;;;;;5090980;27;20035;-92
2024/04/05 06:29:50;;;;;;;22.90;6.72;;;12.10;99.90;;;;;;5108822;27;20095;-93
2024/04/05 06:32:17;;;;;;;20.25;6.35;;;12.20;99.90;;;;;;5108631;27;20521;-92
2024/04/05 06:34:44;;;;;;;21.42;6.70;;;12.30;99.90;;;;;;5106677;28;20039;-93
2024/04/05 06:37:11;;;;;;;10.82;2.33;;;12.40;99.90;;;;;;5110116;27;20027;-93
2024/04/05 06:39:37;;;;;;;13.88;2.75;;;12.40;99.90;;;;;;5091098;27;20126;-93
2024/04/05 06:42:03;;;;;;;18.20;3.85;;;12.40;99.90;;;;;;5109943;27;20035;-94
2024/04/05 06:44:35;;;;;;;22.17;6.35;;;12.40;99.90;;;;;;5092666;27;20053;-94
2024/04/05 06:47:08;;;;;;;23.08;6.53;;;12.50;99.90;;;;;;5126374;27;20038;-94
2024/04/05 06:49:34;;;;;;;13.20;2.38;;;12.60;99.90;;;;;;5104776;28;20043;-93
2024/04/05 06:52:06;;;;;;;12.57;3.20;;;12.70;99.90;;;;;;5093077;27;20038;-94
2024/04/05 06:54:32;;;;;;;15.15;3.00;;;12.70;99.90;;;;;;5107099;27;20087;-93
2024/04/05 06:56:58;;;;;;;12.40;3.25;;;12.70;99.90;;;;;;5108747;28;20034;-93
2024/04/05 06:59:23;;;;;;;15.05;3.70;;;12.80;99.90;;;;;;5108781;27;20066;-93
2024/04/05 07:01:53;;;;;;;23.48;6.95;;;12.90;99.90;;;;;;5109957;28;20027;-94
2024/04/05 07:04:26;;;;;;;15.93;3.92;;;13.10;99.90;;;;;;5125317;27;21621;-94
2024/04/05 07:06:55;;;;;;;18.38;6.25;;;13.10;99.90;;;;;;5108633;28;20042;-93
2024/04/05 07:09:21;;;;;;;19.58;3.05;;;13.20;99.90;;;;;;5089952;28;20050;-94
2024/04/05 07:11:48;;;;;;;19.88;6.07;;;13.20;99.90;;;;;;5092356;28;20609;-93
2024/04/05 07:14:17;;;;;;;20.58;6.15;;;13.30;99.90;;;;;;5092684;28;20123;-93
2024/04/05 07:16:43;;;;;;;22.40;6.25;;;13.40;99.90;;;;;;5089396;28;20088;-94
2024/04/05 07:19:10;;;;;;;12.68;3.47;;;13.50;99.90;;;;;;5105208;28;20118;-94
2024/04/05 07:21:35;;;;;;;14.80;3.17;;;13.50;99.90;;;;;;5091818;28;20537;-93
2024/04/05 07:24:01;;;;;;;13.80;3.08;;;13.50;99.90;;;;;;5092862;28;20039;-93
2024/04/05 07:26:27;;;;;;;18.65;5.72;;;13.50;99.90;;;;;;5093945;28;20031;-93
2024/04/05 07:28:53;;;;;;;11.52;2.47;;;13.60;99.90;;;;;;5093930;28;20401;-94
2024/04/05 07:31:20;;;;;;;19.40;3.10;;;13.70;99.90;;;;;;5109974;28;20510;-93
2024/04/05 07:33:45;;;;;;;18.35;4.47;;;13.70;99.90;;;;;;5090890;28;20072;-94
2024/04/05 07:36:11;;;;;;;18.75;5.40;;;13.70;99.90;;;;;;5108664;28;20413;-94
2024/04/05 07:38:37;;;;;;;17.67;5.90;;;13.80;99.90;;;;;;5091317;28;20543;-92
2024/04/05 07:41:06;;;;;;;17.15;5.97;;;13.80;99.90;;;;;;5128587;28;20039;-94
2024/04/05 07:43:32;;;;;;;10.57;2.65;;;13.90;99.90;;;;;;5091132;28;20120;-93
2024/04/05 07:45:58;;;;;;;11.55;2.63;;;13.90;99.90;;;;;;5107034;28;20068;-93
2024/04/05 07:48:24;;;;;;;19.02;5.43;;;14.00;99.90;;;;;;5105406;28;20046;-94
2024/04/05 07:50:49;;;;;;;10.45;3.05;;;14.00;99.90;;;;;;5092112;28;20521;-94
2024/04/05 07:53:15;;;;;;;17.45;3.65;;;14.10;99.90;;;;;;5127867;28;20050;-93
2024/04/05 07:55:41;;;;;;;9.77;2.47;;;14.10;99.90;;;;;;5092921;28;20042;-94
2024/04/05 07:58:06;;;;;;;12.13;3.28;;;14.20;99.90;;;;;;5130436;27;20549;-93
2024/04/05 08:00:32;;;;;;;14.95;5.20;;;14.20;99.90;;;;;;5111050;27;20095;-94
2024/04/05 08:02:57;;;;;;;9.40;2.85;;;14.40;99.90;;;;;;5132216;27;20042;-93
2024/04/05 08:05:23;;;;;;;11.85;3.20;;;14.40;99.90;;;;;;5129109;27;20520;-94
2024/04/05 08:07:49;;;;;;;17.48;4.80;;;14.40;99.90;;;;;;5112888;27;20035;-94
2024/04/05 08:10:15;;;;;;;10.75;2.75;;;14.50;99.90;;;;;;5096422;27;20519;-93
2024/04/05 08:12:40;;;;;;;8.20;2.33;;;14.50;99.90;;;;;;5130445;27;20123;-94
2024/04/05 08:15:11;;;;;;;14.68;4.65;;;14.50;99.90;;;;;;5095367;27;20134;-94
2024/04/05 08:17:37;;;;;;;16.90;5.15;;;14.60;99.90;;;;;;5108453;27;20412;-94
2024/04/05 08:20:04;;;;;;;14.10;4.57;;;14.70;99.90;;;;;;5111551;27;20083;-93
2024/04/05 08:22:30;;;;;;;12.38;2.88;;;14.80;99.90;;;;;;5096147;27;20479;-94
2024/04/05 08:24:59;;;;;;;15.30;4.85;;;14.80;99.90;;;;;;5096427;27;20072;-93
2024/04/05 08:27:28;;;;;;;15.93;4.47;;;14.80;99.90;;;;;;5111191;27;20117;-94
2024/04/05 08:29:53;;;;;;;17.45;4.82;;;14.90;99.90;;;;;;5128240;27;20068;-93
2024/04/05 08:32:19;;;;;;;8.02;2.42;;;14.90;99.90;;;;;;5110311;27;20027;-93
2024/04/05 08:34:45;;;;;;;13.55;4.40;;;14.90;99.90;;;;;;5129927;27;20035;-94
2024/04/05 08:37:10;;;;;;;16.50;5.28;;;15.00;99.90;;;;;;5111457;27;20037;-94
2024/04/05 08:39:36;;;;;;;16.20;4.40;;;15.10;99.90;;;;;;5094368;27;20402;-94
2024/04/05 08:42:13;;;;;;;16.60;4.85;;;15.10;99.90;;;;;;5094224;27;20023;-93
2024/04/05 08:44:44;;;;;;;12.32;4.30;;;15.10;99.90;;;;;;5093296;27;20027;-93
2024/04/05 08:47:10;;;;;;;10.88;2.28;;;15.10;99.90;;;;;;5111890;27;20481;-94
2024/04/05 08:49:36;;;;;;;16.13;4.38;;;15.10;99.90;;;;;;5092999;27;20110;-93
2024/04/05 08:52:03;;;;;;;10.82;1.98;;;15.10;99.90;;;;;;5111144;27;20558;-93
2024/04/05 08:54:33;;;;;;;14.27;4.40;;;15.00;99.90;;;;;;5110950;27;20031;-94
2024/04/05 08:57:00;;;;;;;16.45;4.30;;;15.00;99.90;;;;;;5110130;27;20043;-93
2024/04/05 08:59:29;;;;;;;11.05;2.55;;;15.00;99.90;;;;;;5109029;27;20078;-94
2024/04/05 09:02:01;;;;;;;10.02;2.42;;;15.00;99.90;;;;;;5110098;27;20071;-93
2024/04/05 09:04:31;;;;;;;11.48;2.22;;;14.90;99.90;;;;;;5092636;27;20039;-93
2024/04/05 09:06:57;;;;;;;8.38;1.90;;;14.70;99.90;;;;;;5128220;27;20058;-93
2024/04/05 09:09:27;;;;;;;14.43;4.40;;;14.60;99.90;;;;;;5092437;27;20043;-93
2024/04/05 09:12:03;;;;;;;12.60;3.10;;;14.70;99.90;;;;;;5093037;27;20042;-93
2024/04/05 09:14:36;;;;;;;12.93;4.32;;;14.70;99.90;;;;;;5090514;27;20117;-94
2024/04/05 09:17:03;;;;;;;15.93;4.70;;;14.60;99.90;;;;;;5092495;27;20524;-93
2024/04/05 09:19:30;;;;;;;17.27;5.60;;;14.60;99.90;;;;;;5109778;27;20122;-94
2024/04/05 09:21:57;;;;;;;13.75;4.43;;;14.70;99.90;;;;;;5093316;27;20081;-94
2024/04/05 09:24:22;;;;;;;13.27;3.20;;;14.60;99.90;;;;;;5095893;27;20057;-94
2024/04/05 09:26:58;;;;;;;10.20;2.28;;;14.60;99.90;;;;;;5096585;27;20410;-93
2024/04/05 09:29:24;;;;;;;10.80;3.03;;;14.50;99.90;;;;;;5094464;27;20069;-93
2024/04/05 09:31:49;;;;;;;12.30;2.85;;;14.50;99.90;;;;;;5093830;27;20058;-94
2024/04/05 09:34:17;;;;;;;15.32;4.18;;;14.50;99.90;;;;;;5094337;27;20558;-93
2024/04/05 09:36:42;;;;;;;9.20;2.40;;;14.50;99.90;;;;;;5110917;27;20035;-93
2024/04/05 09:39:16;;;;;;;11.20;3.03;;;14.60;99.90;;;;;;5110080;27;20050;-94
2024/04/05 09:41:44;;;;;;;17.05;4.65;;;14.60;99.90;;;;;;5107982;27;20039;-93
2024/04/05 09:44:11;;;;;;;12.32;3.05;;;14.60;99.90;;;;;;5109520;27;20110;-94
2024/04/05 09:46:38;;;;;;;11.93;3.42;;;14.60;99.90;;;;;;5110045;27;20032;-93
2024/04/05 09:49:05;;;;;;;17.02;5.82;;;14.60;99.90;;;;;;5128690;27;20050;-94
2024/04/05 09:51:42;;;;;;;14.95;4.43;;;14.70;99.90;;;;;;5093677;27;20106;-94
2024/04/05 09:54:10;;;;;;;10.32;2.10;;;14.70;99.90;;;;;;5096091;27;20114;-94
2024/04/05 09:56:38;;;;;;;16.63;4.60;;;14.70;99.90;;;;;;5105843;27;20043;-93
2024/04/05 09:59:16;;;;;;;9.05;2.78;;;14.80;99.90;;;;;;5110041;27;20422;-94
2024/04/05 10:01:45;;;;;;;8.55;2.35;;;14.70;99.90;;;;;;5093658;27;20475;-95
2024/04/05 10:04:12;;;;;;;10.73;1.83;;;14.60;99.90;;;;;;5112314;27;20035;-94
2024/04/05 10:06:39;;;;;;;12.75;4.15;;;14.60;99.90;;;;;;5094136;27;20035;-94
2024/04/05 10:09:22;;;;;;;12.27;3.88;;;14.60;99.90;;;;;;5091590;27;20035;-95
2024/04/05 10:11:51;;;;;;;10.18;2.28;;;14.70;99.90;;;;;;5094126;27;20115;-95
2024/04/05 10:14:29;;;;;;;9.35;2.35;;;14.60;99.90;;;;;;5109735;27;20049;-95
2024/04/05 10:17:09;;;;;;;10.50;2.83;;;14.60;99.90;;;;;;5108494;27;20127;-94
2024/04/05 10:19:37;;;;;;;12.48;3.92;;;14.50;99.90;;;;;;5092210;27;20050;-95
2024/04/05 10:22:11;;;;;;;13.15;4.07;;;14.60;99.90;;;;;;5094323;27;20046;-94
2024/04/05 10:24:37;;;;;;;13.52;4.50;;;14.60;99.90;;;;;;5097976;27;20087;-95
2024/04/05 10:27:11;;;;;;;13.52;4.28;;;14.60;99.90;;;;;;5112932;27;20038;-95
2024/04/05 10:29:37;;;;;;;14.30;4.43;;;14.70;99.90;;;;;;5092923;27;20467;-94
2024/04/05 10:32:06;;;;;;;7.85;2.05;;;14.60;99.90;;;;;;5110053;27;20039;-94
2024/04/05 10:34:33;;;;;;;6.43;1.98;;;14.60;99.90;;;;;;5128208;27;20104;-93
2024/04/05 10:36:59;;;;;;;14.40;3.90;;;14.50;99.90;;;;;;5092458;27;20119;-93
2024/04/05 10:39:24;;;;;;;11.77;3.72;;;14.60;99.90;;;;;;5091429;27;20076;-93
2024/04/05 10:41:51;;;;;;;6.93;2.03;;;14.60;99.90;;;;;;5109680;27;20046;-93
2024/04/05 10:44:19;;;;;;;7.05;1.45;;;14.60;99.90;;;;;;5109887;27;20034;-93
2024/04/05 10:46:47;;;;;;;3.75;1.20;;;14.60;99.90;;;;;;5127707;27;20035;-94
2024/04/05 10:49:15;;;;;;;12.75;3.90;;;14.50;99.90;;;;;;5109004;27;20039;-94
2024/04/05 10:51:42;;;;;;;4.78;1.67;;;14.60;99.90;;;;;;5089666;27;20039;-92
2024/04/05 10:54:12;;;;;;;14.10;4.22;;;14.60;99.90;;;;;;5089141;28;20042;-93
2024/04/05 10:56:39;;;;;;;12.82;3.53;;;14.70;99.90;;;;;;5106722;27;20050;-92
2024/04/05 10:59:12;;;;;;;9.18;2.05;;;14.80;99.90;;;;;;5090880;27;20047;-93
2024/04/05 11:01:39;;;;;;;6.60;1.85;;;14.80;99.90;;;;;;5110118;27;20041;-93
2024/04/05 11:04:12;;;;;;;8.75;1.92;;;14.80;99.90;;;;;;5109282;27;20159;-93
2024/04/05 11:06:39;;;;;;;10.70;3.70;;;14.80;99.90;;;;;;5091057;28;20035;-94
2024/04/05 11:09:14;;;;;;;8.07;1.88;;;14.90;99.90;;;;;;5090847;28;20108;-94
2024/04/05 11:11:41;;;;;;;11.63;3.80;;;14.90;99.90;;;;;;5107465;28;20024;-93
2024/04/05 11:14:10;;;;;;;12.48;3.40;;;15.00;99.90;;;;;;5092206;28;20035;-93
2024/04/05 11:16:37;;;;;;;6.90;2.05;;;15.10;99.90;;;;;;5092063;28;20043;-93
2024/04/05 11:19:04;;;;;;;11.55;2.88;;;15.10;99.90;;;;;;5108519;28;20035;-94
2024/04/05 11:21:29;;;;;;;11.02;3.35;;;15.10;99.90;;;;;;5109188;27;20039;-94
2024/04/05 11:23:56;;;;;;;11.35;3.75;;;15.20;99.90;;;;;;5096692;28;20049;-93
2024/04/05 11:26:30;;;;;;;5.18;1.67;;;15.20;99.90;;;;;;5111963;27;20102;-93
2024/04/05 11:28:56;;;;;;;7.60;2.53;;;15.10;99.90;;;;;;5110393;28;20095;-93
2024/04/05 11:31:25;;;;;;;10.98;3.53;;;15.10;99.90;;;;;;5095844;27;20709;-93
2024/04/05 11:33:52;;;;;;;11.18;3.55;;;15.10;99.90;;;;;;5131351;27;20042;-93
2024/04/05 11:36:17;;;;;;;9.80;3.38;;;15.20;99.90;;;;;;5093730;27;20049;-93
2024/04/05 11:38:43;;;;;;;11.15;3.78;;;15.20;99.90;;;;;;5110360;27;20031;-93
2024/04/05 11:41:09;;;;;;;4.28;2.05;;;15.20;99.90;;;;;;5095850;27;20054;-94
2024/04/05 11:43:34;;;;;;;10.27;2.92;;;15.20;99.90;;;;;;5113895;27;20036;-93
2024/04/05 11:46:00;;;;;;;10.63;3.30;;;15.20;99.90;;;;;;5113778;27;20459;-93
2024/04/05 11:48:26;;;;;;;4.03;1.48;;;15.30;99.90;;;;;;5095102;27;20054;-93
2024/04/05 11:50:51;;;;;;;9.15;3.10;;;15.30;99.90;;;;;;5111921;27;20035;-94
2024/04/05 11:53:17;;;;;;;9.05;3.33;;;15.30;99.90;;;;;;5110859;27;20092;-94
2024/04/05 11:55:43;;;;;;;10.40;3.30;;;15.40;99.90;;;;;;5095719;27;20118;-94
2024/04/05 11:58:10;;;;;;;9.98;3.58;;;15.40;99.90;;;;;;5095861;27;20066;-94
2024/04/05 12:00:35;;;;;;;10.10;3.38;;;15.50;99.90;;;;;;5112568;27;20043;-93
2024/04/05 12:03:01;;;;;;;10.88;3.35;;;15.50;99.90;;;;;;5096803;27;20076;-93
2024/04/05 12:05:27;;;;;;;8.27;2.28;;;15.50;99.90;;;;;;5094051;27;20479;-93
2024/04/05 12:07:52;;;;;;;7.60;2.38;;;15.50;99.90;;;;;;5111447;27;20074;-93
2024/04/05 12:10:19;;;;;;;6.03;2.33;;;15.50;99.90;;;;;;5111101;27;20035;-93
2024/04/05 12:12:44;;;;;;;12.43;3.30;;;15.50;99.90;;;;;;5131232;27;20546;-93
2024/04/05 12:15:10;;;;;;;8.70;3.08;;;15.50;99.90;;;;;;5113130;27;20138;-94
2024/04/05 12:17:37;;;;;;;9.98;3.05;;;15.60;99.90;;;;;;5093001;27;20032;-93
2024/04/05 12:20:05;;;;;;;4.47;1.98;;;15.60;99.90;;;;;;5111924;27;20042;-94
2024/04/05 12:22:31;;;;;;;7.70;2.38;;;15.50;99.90;;;;;;5095878;27;20399;-94
2024/04/05 12:24:57;;;;;;;11.00;3.47;;;15.50;99.90;;;;;;5095707;27;20544;-93
2024/04/05 12:27:23;;;;;;;4.45;1.42;;;15.50;99.90;;;;;;5112999;27;20031;-93
2024/04/05 12:29:49;;;;;;;10.68;2.92;;;15.40;99.90;;;;;;5095916;27;20035;-94
2024/04/05 12:32:15;;;;;;;6.90;1.50;;;15.40;99.90;;;;;;5131589;27;20035;-94
2024/04/05 12:34:41;;;;;;;10.45;3.00;;;15.30;99.90;;;;;;5109068;27;20032;-94
2024/04/05 12:37:09;;;;;;;3.67;1.10;;;15.30;99.90;;;;;;5111397;27;20525;-93